sensor_id;sensor_type;location;lat;lon;timestamp;temperature;humidity
32446;DHT22;18899;50.748;7.102;2022-12-31T00:01:08;15.10;99.90
32446;DHT22;18899;50.748;7.102;2022-12-31T00:03:35;15.00;99.90
32446;DHT22;18899;50.748;7.102;2022-12-31T00:06:00;14.90;99.90
32446;DHT22;18899;50.748;7.102;2022-12-31T00:08:26;14.90;99.90
32446;DHT22;18899;50.748;7.102;2022-12-31T00:10:51;14.90;99.90
32446;DHT22;18899;50.748;7.102;2022-12-31T00:13:17;15.10;99.90
32446;DHT22;18899;50.748;7.102;2022-12-31T00:15:43;15.10;99.90
32446;DHT22;18899;50.748;7.102;2022-12-31T00:18:09;15.10;99.90
32446;DHT22;18899;50.748;7.102;2022-12-31T00:20:39;15.30;99.90
32446;DHT22;18899;50.748;7.102;2022-12-31T00:23:06;15.30;99.90
32446;DHT22;18899;50.748;7.102;2022-12-31T00:25:34;15.30;99.90
32446;DHT22;18899;50.748;7.102;2022-12-31T00:28:00;15.30;99.90
32446;DHT22;18899;50.748;7.102;2022-12-31T00:30:25;15.30;99.90
32446;DHT22;18899;50.748;7.102;2022-12-31T00:32:50;15.40;99.90
32446;DHT22;18899;50.748;7.102;2022-12-31T00:35:17;15.30;99.90
32446;DHT22;18899;50.748;7.102;2022-12-31T00:37:42;15.40;99.90
32446;DHT22;18899;50.748;7.102;2022-12-31T00:40:08;15.40;99.90
32446;DHT22;18899;50.748;7.102;2022-12-31T00:42:34;15.40;99.90
32446;DHT22;18899;50.748;7.102;2022-12-31T00:44:59;15.50;99.90
32446;DHT22;18899;50.748;7.102;2022-12-31T00:47:25;15.50;99.90
32446;DHT22;18899;50.748;7.102;2022-12-31T00:49:52;15.50;99.90
32446;DHT22;18899;50.748;7.102;2022-12-31T00:52:17;15.60;99.90
32446;DHT22;18899;50.748;7.102;2022-12-31T00:54:43;15.60;99.90
32446;DHT22;18899;50.748;7.102;2022-12-31T00:57:09;15.70;99.90
32446;DHT22;18899;50.748;7.102;2022-12-31T00:59:34;15.70;99.90
32446;DHT22;18899;50.748;7.102;2022-12-31T01:02:00;15.70;99.90
32446;DHT22;18899;50.748;7.102;2022-12-31T01:04:25;15.70;99.90
32446;DHT22;18899;50.748;7.102;2022-12-31T01:06:51;15.70;99.90
32446;DHT22;18899;50.748;7.102;2022-12-31T01:09:17;15.60;99.90
32446;DHT22;18899;50.748;7.102;2022-12-31T01:11:42;15.60;99.90
32446;DHT22;18899;50.748;7.102;2022-12-31T01:14:14;15.70;99.90
32446;DHT22;18899;50.748;7.102;2022-12-31T01:16:46;15.80;99.90
32446;DHT22;18899;50.748;7.102;2022-12-31T01:19:17;15.80;99.90
32446;DHT22;18899;50.748;7.102;2022-12-31T01:21:44;15.80;99.90
32446;DHT22;18899;50.748;7.102;2022-12-31T01:24:10;15.80;99.90
32446;DHT22;18899;50.748;7.102;2022-12-31T01:26:36;15.70;99.90
32446;DHT22;18899;50.748;7.102;2022-12-31T01:29:03;15.70;99.90
32446;DHT22;18899;50.748;7.102;2022-12-31T01:31:29;15.70;99.90
32446;DHT22;18899;50.748;7.102;2022-12-31T01:33:56;15.60;99.90
32446;DHT22;18899;50.748;7.102;2022-12-31T01:36:24;15.70;99.90
32446;DHT22;18899;50.748;7.102;2022-12-31T01:38:50;15.60;99.90
32446;DHT22;18899;50.748;7.102;2022-12-31T01:41:20;15.60;99.90
32446;DHT22;18899;50.748;7.102;2022-12-31T01:43:59;15.60;99.90
32446;DHT22;18899;50.748;7.102;2022-12-31T01:49:03;15.70;99.90
32446;DHT22;18899;50.748;7.102;2022-12-31T01:51:32;15.70;99.90
32446;DHT22;18899;50.748;7.102;2022-12-31T01:53:59;15.70;99.90
32446;DHT22;18899;50.748;7.102;2022-12-31T01:56:27;15.70;99.90
32446;DHT22;18899;50.748;7.102;2022-12-31T01:58:54;15.60;99.90
32446;DHT22;18899;50.748;7.102;2022-12-31T02:01:25;15.70;99.90
32446;DHT22;18899;50.748;7.102;2022-12-31T02:03:52;15.80;99.90
32446;DHT22;18899;50.748;7.102;2022-12-31T02:06:36;15.80;99.90
32446;DHT22;18899;50.748;7.102;2022-12-31T02:09:03;15.80;99.90
32446;DHT22;18899;50.748;7.102;2022-12-31T02:11:31;15.80;99.90
32446;DHT22;18899;50.748;7.102;2022-12-31T02:14:02;15.90;99.90
32446;DHT22;18899;50.748;7.102;2022-12-31T02:30:41;16.00;99.90
32446;DHT22;18899;50.748;7.102;2022-12-31T02:35:46;16.20;99.90
32446;DHT22;18899;50.748;7.102;2022-12-31T02:38:23;16.10;99.90
32446;DHT22;18899;50.748;7.102;2022-12-31T02:40:52;16.20;99.90
32446;DHT22;18899;50.748;7.102;2022-12-31T02:43:18;16.30;99.90
32446;DHT22;18899;50.748;7.102;2022-12-31T02:45:49;16.30;99.90
32446;DHT22;18899;50.748;7.102;2022-12-31T02:51:02;16.30;99.90
32446;DHT22;18899;50.748;7.102;2022-12-31T02:56:27;16.30;99.90
32446;DHT22;18899;50.748;7.102;2022-12-31T02:59:01;16.40;99.90
32446;DHT22;18899;50.748;7.102;2022-12-31T03:01:52;16.40;99.90
32446;DHT22;18899;50.748;7.102;2022-12-31T03:04:39;16.50;99.90
32446;DHT22;18899;50.748;7.102;2022-12-31T03:07:09;16.50;99.90
32446;DHT22;18899;50.748;7.102;2022-12-31T03:09:36;16.40;99.90
32446;DHT22;18899;50.748;7.102;2022-12-31T03:12:04;16.40;99.90
32446;DHT22;18899;50.748;7.102;2022-12-31T03:14:49;16.50;99.90
32446;DHT22;18899;50.748;7.102;2022-12-31T03:17:14;16.50;99.90
32446;DHT22;18899;50.748;7.102;2022-12-31T03:19:40;16.40;99.90
32446;DHT22;18899;50.748;7.102;2022-12-31T03:22:25;16.50;99.90
32446;DHT22;18899;50.748;7.102;2022-12-31T03:25:01;16.40;99.90
32446;DHT22;18899;50.748;7.102;2022-12-31T03:27:46;16.40;99.90
32446;DHT22;18899;50.748;7.102;2022-12-31T03:30:14;16.40;99.90
32446;DHT22;18899;50.748;7.102;2022-12-31T03:32:41;16.30;99.90
32446;DHT22;18899;50.748;7.102;2022-12-31T03:35:07;16.30;99.90
32446;DHT22;18899;50.748;7.102;2022-12-31T03:37:33;16.40;99.90
32446;DHT22;18899;50.748;7.102;2022-12-31T03:39:58;16.40;99.90
32446;DHT22;18899;50.748;7.102;2022-12-31T03:42:24;16.40;99.90
32446;DHT22;18899;50.748;7.102;2022-12-31T03:44:49;16.40;99.90
32446;DHT22;18899;50.748;7.102;2022-12-31T03:47:15;16.50;99.90
32446;DHT22;18899;50.748;7.102;2022-12-31T03:49:40;16.50;99.90
32446;DHT22;18899;50.748;7.102;2022-12-31T03:52:06;16.40;99.90
32446;DHT22;18899;50.748;7.102;2022-12-31T03:54:32;16.50;99.90
32446;DHT22;18899;50.748;7.102;2022-12-31T03:56:58;16.40;99.90
32446;DHT22;18899;50.748;7.102;2022-12-31T03:59:23;16.50;99.90
32446;DHT22;18899;50.748;7.102;2022-12-31T04:01:49;16.50;99.90
32446;DHT22;18899;50.748;7.102;2022-12-31T04:04:15;16.50;99.90
32446;DHT22;18899;50.748;7.102;2022-12-31T04:06:40;16.50;99.90
32446;DHT22;18899;50.748;7.102;2022-12-31T04:09:05;16.50;99.90
32446;DHT22;18899;50.748;7.102;2022-12-31T04:11:31;16.50;99.90
32446;DHT22;18899;50.748;7.102;2022-12-31T04:13:56;16.50;99.90
32446;DHT22;18899;50.748;7.102;2022-12-31T04:16:25;16.40;99.90
32446;DHT22;18899;50.748;7.102;2022-12-31T04:18:50;16.50;99.90
32446;DHT22;18899;50.748;7.102;2022-12-31T04:21:16;16.50;99.90
32446;DHT22;18899;50.748;7.102;2022-12-31T04:23:41;16.50;99.90
32446;DHT22;18899;50.748;7.102;2022-12-31T04:26:07;16.50;99.90
32446;DHT22;18899;50.748;7.102;2022-12-31T04:28:32;16.60;99.90
32446;DHT22;18899;50.748;7.102;2022-12-31T04:30:58;16.60;99.90
32446;DHT22;18899;50.748;7.102;2022-12-31T04:33:23;16.50;99.90
32446;DHT22;18899;50.748;7.102;2022-12-31T04:35:49;16.50;99.90
32446;DHT22;18899;50.748;7.102;2022-12-31T04:38:14;16.50;99.90
32446;DHT22;18899;50.748;7.102;2022-12-31T04:40:40;16.50;99.90
32446;DHT22;18899;50.748;7.102;2022-12-31T04:43:25;16.50;99.90
32446;DHT22;18899;50.748;7.102;2022-12-31T04:45:51;16.50;99.90
32446;DHT22;18899;50.748;7.102;2022-12-31T04:48:16;16.60;99.90
32446;DHT22;18899;50.748;7.102;2022-12-31T04:50:42;16.60;99.90
32446;DHT22;18899;50.748;7.102;2022-12-31T04:53:07;16.60;99.90
32446;DHT22;18899;50.748;7.102;2022-12-31T04:55:33;16.60;99.90
32446;DHT22;18899;50.748;7.102;2022-12-31T04:57:58;16.70;99.90
32446;DHT22;18899;50.748;7.102;2022-12-31T05:00:24;16.70;99.90
32446;DHT22;18899;50.748;7.102;2022-12-31T05:02:49;16.80;99.90
32446;DHT22;18899;50.748;7.102;2022-12-31T05:05:15;16.90;99.90
32446;DHT22;18899;50.748;7.102;2022-12-31T05:07:40;16.80;99.90
32446;DHT22;18899;50.748;7.102;2022-12-31T05:10:06;16.80;99.90
32446;DHT22;18899;50.748;7.102;2022-12-31T05:12:32;16.80;99.90
32446;DHT22;18899;50.748;7.102;2022-12-31T05:14:57;16.90;99.90
32446;DHT22;18899;50.748;7.102;2022-12-31T05:17:23;16.90;99.90
32446;DHT22;18899;50.748;7.102;2022-12-31T05:19:48;17.00;99.90
32446;DHT22;18899;50.748;7.102;2022-12-31T05:22:14;17.00;99.90
32446;DHT22;18899;50.748;7.102;2022-12-31T05:24:59;17.00;99.90
32446;DHT22;18899;50.748;7.102;2022-12-31T05:27:25;17.00;99.90
32446;DHT22;18899;50.748;7.102;2022-12-31T05:29:50;17.00;99.90
32446;DHT22;18899;50.748;7.102;2022-12-31T05:32:16;17.00;99.90
32446;DHT22;18899;50.748;7.102;2022-12-31T05:34:42;17.10;99.90
32446;DHT22;18899;50.748;7.102;2022-12-31T05:37:07;17.10;99.90
32446;DHT22;18899;50.748;7.102;2022-12-31T05:39:33;17.10;99.90
32446;DHT22;18899;50.748;7.102;2022-12-31T05:41:59;17.10;99.90
32446;DHT22;18899;50.748;7.102;2022-12-31T05:44:24;17.10;99.90
32446;DHT22;18899;50.748;7.102;2022-12-31T05:46:50;17.10;99.90
32446;DHT22;18899;50.748;7.102;2022-12-31T05:49:15;17.10;99.90
32446;DHT22;18899;50.748;7.102;2022-12-31T05:51:41;17.20;99.90
32446;DHT22;18899;50.748;7.102;2022-12-31T05:54:06;17.20;99.90
32446;DHT22;18899;50.748;7.102;2022-12-31T05:56:32;17.20;99.90
32446;DHT22;18899;50.748;7.102;2022-12-31T05:58:57;17.20;99.90
32446;DHT22;18899;50.748;7.102;2022-12-31T06:01:23;17.20;99.90
32446;DHT22;18899;50.748;7.102;2022-12-31T06:03:48;17.20;99.90
32446;DHT22;18899;50.748;7.102;2022-12-31T06:06:14;17.10;99.90
32446;DHT22;18899;50.748;7.102;2022-12-31T06:08:39;17.20;99.90
32446;DHT22;18899;50.748;7.102;2022-12-31T06:11:05;17.10;99.90
32446;DHT22;18899;50.748;7.102;2022-12-31T06:13:31;17.10;99.90
32446;DHT22;18899;50.748;7.102;2022-12-31T06:15:56;17.10;99.90
32446;DHT22;18899;50.748;7.102;2022-12-31T06:18:22;17.10;99.90
32446;DHT22;18899;50.748;7.102;2022-12-31T06:20:47;17.00;99.90
32446;DHT22;18899;50.748;7.102;2022-12-31T06:23:13;17.00;99.90
32446;DHT22;18899;50.748;7.102;2022-12-31T06:25:38;17.10;99.90
32446;DHT22;18899;50.748;7.102;2022-12-31T06:28:04;17.00;99.90
32446;DHT22;18899;50.748;7.102;2022-12-31T06:30:30;17.00;99.90
32446;DHT22;18899;50.748;7.102;2022-12-31T06:32:56;17.00;99.90
32446;DHT22;18899;50.748;7.102;2022-12-31T06:35:22;17.00;99.90
32446;DHT22;18899;50.748;7.102;2022-12-31T06:37:47;17.10;99.90
32446;DHT22;18899;50.748;7.102;2022-12-31T06:40:13;17.10;99.90
32446;DHT22;18899;50.748;7.102;2022-12-31T06:42:39;17.10;99.90
32446;DHT22;18899;50.748;7.102;2022-12-31T06:45:05;17.20;99.90
32446;DHT22;18899;50.748;7.102;2022-12-31T06:47:31;17.20;99.90
32446;DHT22;18899;50.748;7.102;2022-12-31T06:49:56;17.30;99.90
32446;DHT22;18899;50.748;7.102;2022-12-31T06:52:22;17.40;99.90
32446;DHT22;18899;50.748;7.102;2022-12-31T06:54:47;17.40;99.90
32446;DHT22;18899;50.748;7.102;2022-12-31T06:57:14;17.40;99.90
32446;DHT22;18899;50.748;7.102;2022-12-31T06:59:39;17.40;99.90
32446;DHT22;18899;50.748;7.102;2022-12-31T07:02:30;17.40;99.90
32446;DHT22;18899;50.748;7.102;2022-12-31T07:10:31;17.40;99.90
32446;DHT22;18899;50.748;7.102;2022-12-31T07:13:20;17.40;99.90
32446;DHT22;18899;50.748;7.102;2022-12-31T07:21:18;17.40;99.90
32446;DHT22;18899;50.748;7.102;2022-12-31T07:23:47;17.40;99.90
32446;DHT22;18899;50.748;7.102;2022-12-31T07:26:22;17.40;99.90
32446;DHT22;18899;50.748;7.102;2022-12-31T07:29:06;17.50;99.90
32446;DHT22;18899;50.748;7.102;2022-12-31T07:34:59;17.50;99.90
32446;DHT22;18899;50.748;7.102;2022-12-31T07:45:46;17.50;99.90
32446;DHT22;18899;50.748;7.102;2022-12-31T07:48:27;17.50;99.90
32446;DHT22;18899;50.748;7.102;2022-12-31T07:50:54;17.50;99.90
32446;DHT22;18899;50.748;7.102;2022-12-31T07:53:22;17.50;99.90
32446;DHT22;18899;50.748;7.102;2022-12-31T07:55:55;17.50;99.90
32446;DHT22;18899;50.748;7.102;2022-12-31T07:58:27;17.50;99.90
32446;DHT22;18899;50.748;7.102;2022-12-31T08:00:57;17.50;99.90
32446;DHT22;18899;50.748;7.102;2022-12-31T08:06:34;17.60;99.90
32446;DHT22;18899;50.748;7.102;2022-12-31T08:09:11;17.60;99.90
32446;DHT22;18899;50.748;7.102;2022-12-31T08:12:05;17.70;99.90
32446;DHT22;18899;50.748;7.102;2022-12-31T08:14:31;17.60;99.90
32446;DHT22;18899;50.748;7.102;2022-12-31T08:17:01;17.60;99.90
32446;DHT22;18899;50.748;7.102;2022-12-31T08:19:31;17.60;99.90
32446;DHT22;18899;50.748;7.102;2022-12-31T08:22:04;17.60;99.90
32446;DHT22;18899;50.748;7.102;2022-12-31T08:30:15;17.60;99.90
32446;DHT22;18899;50.748;7.102;2022-12-31T08:39:02;17.80;99.90
32446;DHT22;18899;50.748;7.102;2022-12-31T08:41:39;17.80;99.90
32446;DHT22;18899;50.748;7.102;2022-12-31T08:49:28;17.80;99.90
32446;DHT22;18899;50.748;7.102;2022-12-31T08:51:54;17.80;99.90
32446;DHT22;18899;50.748;7.102;2022-12-31T08:54:20;17.80;99.90
32446;DHT22;18899;50.748;7.102;2022-12-31T09:02:47;17.90;99.90
32446;DHT22;18899;50.748;7.102;2022-12-31T09:05:23;17.80;99.90
32446;DHT22;18899;50.748;7.102;2022-12-31T09:08:11;17.90;99.90
32446;DHT22;18899;50.748;7.102;2022-12-31T09:13:31;17.90;99.90
32446;DHT22;18899;50.748;7.102;2022-12-31T09:18:39;18.00;99.90
32446;DHT22;18899;50.748;7.102;2022-12-31T09:21:05;18.00;99.90
32446;DHT22;18899;50.748;7.102;2022-12-31T09:23:31;18.00;99.90
32446;DHT22;18899;50.748;7.102;2022-12-31T09:31:50;18.20;99.90
32446;DHT22;18899;50.748;7.102;2022-12-31T09:34:28;18.20;99.90
32446;DHT22;18899;50.748;7.102;2022-12-31T09:37:00;18.30;99.90
32446;DHT22;18899;50.748;7.102;2022-12-31T09:48:15;18.40;99.90
32446;DHT22;18899;50.748;7.102;2022-12-31T09:53:50;18.50;99.90
32446;DHT22;18899;50.748;7.102;2022-12-31T09:56:28;18.50;99.90
32446;DHT22;18899;50.748;7.102;2022-12-31T09:59:12;18.50;99.90
32446;DHT22;18899;50.748;7.102;2022-12-31T10:02:08;18.40;99.90
32446;DHT22;18899;50.748;7.102;2022-12-31T10:07:36;18.40;99.90
32446;DHT22;18899;50.748;7.102;2022-12-31T10:10:23;18.40;99.90
32446;DHT22;18899;50.748;7.102;2022-12-31T10:13:22;18.40;99.90
32446;DHT22;18899;50.748;7.102;2022-12-31T10:19:21;18.60;99.90
32446;DHT22;18899;50.748;7.102;2022-12-31T10:22:11;18.60;99.90
32446;DHT22;18899;50.748;7.102;2022-12-31T10:27:39;18.50;99.90
32446;DHT22;18899;50.748;7.102;2022-12-31T10:30:18;18.50;99.90
32446;DHT22;18899;50.748;7.102;2022-12-31T10:32:49;18.60;99.90
32446;DHT22;18899;50.748;7.102;2022-12-31T10:35:35;18.60;99.90
32446;DHT22;18899;50.748;7.102;2022-12-31T10:38:33;18.50;99.90
32446;DHT22;18899;50.748;7.102;2022-12-31T10:59:13;18.70;99.90
32446;DHT22;18899;50.748;7.102;2022-12-31T11:13:56;18.70;99.90
32446;DHT22;18899;50.748;7.102;2022-12-31T11:16:34;18.70;99.90
32446;DHT22;18899;50.748;7.102;2022-12-31T11:24:23;18.70;99.90
32446;DHT22;18899;50.748;7.102;2022-12-31T11:37:44;18.90;99.90
32446;DHT22;18899;50.748;7.102;2022-12-31T11:43:24;18.80;99.90
32446;DHT22;18899;50.748;7.102;2022-12-31T11:49:15;18.70;99.90
32446;DHT22;18899;50.748;7.102;2022-12-31T11:57:40;18.50;99.90
32446;DHT22;18899;50.748;7.102;2022-12-31T12:00:15;18.50;99.90
32446;DHT22;18899;50.748;7.102;2022-12-31T12:02:51;18.40;99.90
32446;DHT22;18899;50.748;7.102;2022-12-31T12:05:20;18.50;99.90
32446;DHT22;18899;50.748;7.102;2022-12-31T12:07:48;18.60;99.90
32446;DHT22;18899;50.748;7.102;2022-12-31T12:10:30;18.70;99.90
32446;DHT22;18899;50.748;7.102;2022-12-31T12:12:57;18.60;99.90
32446;DHT22;18899;50.748;7.102;2022-12-31T12:15:28;18.60;99.90
32446;DHT22;18899;50.748;7.102;2022-12-31T12:17:57;18.60;99.90
32446;DHT22;18899;50.748;7.102;2022-12-31T12:20:30;18.60;99.90
32446;DHT22;18899;50.748;7.102;2022-12-31T12:22:58;18.70;99.90
32446;DHT22;18899;50.748;7.102;2022-12-31T12:25:26;18.60;99.90
32446;DHT22;18899;50.748;7.102;2022-12-31T12:27:52;18.70;99.90
32446;DHT22;18899;50.748;7.102;2022-12-31T12:32:58;18.80;99.90
32446;DHT22;18899;50.748;7.102;2022-12-31T12:35:32;18.70;99.90
32446;DHT22;18899;50.748;7.102;2022-12-31T12:38:04;18.80;99.90
32446;DHT22;18899;50.748;7.102;2022-12-31T12:40:31;18.90;99.90
32446;DHT22;18899;50.748;7.102;2022-12-31T12:42:56;19.00;99.90
32446;DHT22;18899;50.748;7.102;2022-12-31T12:45:25;19.00;99.90
32446;DHT22;18899;50.748;7.102;2022-12-31T12:47:57;19.10;99.90
32446;DHT22;18899;50.748;7.102;2022-12-31T12:50:33;19.00;99.90
32446;DHT22;18899;50.748;7.102;2022-12-31T12:55:46;19.20;99.90
32446;DHT22;18899;50.748;7.102;2022-12-31T13:01:23;19.30;99.90
32446;DHT22;18899;50.748;7.102;2022-12-31T13:06:34;19.30;99.90
32446;DHT22;18899;50.748;7.102;2022-12-31T13:12:10;19.20;99.90
32446;DHT22;18899;50.748;7.102;2022-12-31T13:14:57;19.00;99.90
32446;DHT22;18899;50.748;7.102;2022-12-31T13:20:34;18.80;99.90
32446;DHT22;18899;50.748;7.102;2022-12-31T13:24:05;18.90;99.90
32446;DHT22;18899;50.748;7.102;2022-12-31T13:26:07;18.90;99.90
32446;DHT22;18899;50.748;7.102;2022-12-31T13:28:35;18.90;99.90
32446;DHT22;18899;50.748;7.102;2022-12-31T13:31:10;18.80;99.90
32446;DHT22;18899;50.748;7.102;2022-12-31T13:33:41;18.80;99.90
32446;DHT22;18899;50.748;7.102;2022-12-31T13:36:12;18.80;99.90
32446;DHT22;18899;50.748;7.102;2022-12-31T13:38:42;18.90;99.90
32446;DHT22;18899;50.748;7.102;2022-12-31T13:41:24;18.90;99.90
32446;DHT22;18899;50.748;7.102;2022-12-31T13:46:45;18.80;99.90
32446;DHT22;18899;50.748;7.102;2022-12-31T13:49:37;18.70;99.90
32446;DHT22;18899;50.748;7.102;2022-12-31T13:52:29;18.70;99.90
32446;DHT22;18899;50.748;7.102;2022-12-31T13:55:20;18.70;99.90
32446;DHT22;18899;50.748;7.102;2022-12-31T14:01:04;18.60;99.90
32446;DHT22;18899;50.748;7.102;2022-12-31T14:03:43;18.70;99.90
32446;DHT22;18899;50.748;7.102;2022-12-31T14:06:35;18.60;99.90
32446;DHT22;18899;50.748;7.102;2022-12-31T14:09:04;18.60;99.90
32446;DHT22;18899;50.748;7.102;2022-12-31T14:11:45;18.60;99.90
32446;DHT22;18899;50.748;7.102;2022-12-31T14:14:51;18.70;99.90
32446;DHT22;18899;50.748;7.102;2022-12-31T14:20:10;18.60;99.90
32446;DHT22;18899;50.748;7.102;2022-12-31T14:25:33;18.60;99.90
32446;DHT22;18899;50.748;7.102;2022-12-31T14:28:01;18.60;99.90
32446;DHT22;18899;50.748;7.102;2022-12-31T14:30:31;18.60;99.90
32446;DHT22;18899;50.748;7.102;2022-12-31T14:33:08;18.60;99.90
32446;DHT22;18899;50.748;7.102;2022-12-31T14:38:28;18.50;99.90
32446;DHT22;18899;50.748;7.102;2022-12-31T14:46:23;18.40;99.90
32446;DHT22;18899;50.748;7.102;2022-12-31T14:51:30;18.20;99.90
32446;DHT22;18899;50.748;7.102;2022-12-31T14:53:59;18.10;99.90
32446;DHT22;18899;50.748;7.102;2022-12-31T14:56:50;18.00;99.90
32446;DHT22;18899;50.748;7.102;2022-12-31T15:01:50;17.90;99.90
32446;DHT22;18899;50.748;7.102;2022-12-31T15:04:15;17.90;99.90
32446;DHT22;18899;50.748;7.102;2022-12-31T15:06:53;17.70;99.90
32446;DHT22;18899;50.748;7.102;2022-12-31T15:09:38;17.70;99.90
32446;DHT22;18899;50.748;7.102;2022-12-31T15:15:19;17.60;99.90
32446;DHT22;18899;50.748;7.102;2022-12-31T15:23:41;17.40;99.90
32446;DHT22;18899;50.748;7.102;2022-12-31T15:26:24;17.40;99.90
32446;DHT22;18899;50.748;7.102;2022-12-31T15:29:07;17.40;99.90
32446;DHT22;18899;50.748;7.102;2022-12-31T15:31:46;17.40;99.90
32446;DHT22;18899;50.748;7.102;2022-12-31T15:34:33;17.40;99.90
32446;DHT22;18899;50.748;7.102;2022-12-31T15:37:05;17.40;99.90
32446;DHT22;18899;50.748;7.102;2022-12-31T15:41:58;17.40;99.90
32446;DHT22;18899;50.748;7.102;2022-12-31T15:44:47;17.40;99.90
32446;DHT22;18899;50.748;7.102;2022-12-31T15:47:30;17.30;99.90
32446;DHT22;18899;50.748;7.102;2022-12-31T15:50:06;17.30;99.90
32446;DHT22;18899;50.748;7.102;2022-12-31T15:52:42;17.30;99.90
32446;DHT22;18899;50.748;7.102;2022-12-31T15:55:35;17.30;99.90
32446;DHT22;18899;50.748;7.102;2022-12-31T15:58:11;17.30;99.90
32446;DHT22;18899;50.748;7.102;2022-12-31T16:03:22;17.20;99.90
32446;DHT22;18899;50.748;7.102;2022-12-31T16:05:48;17.10;99.90
32446;DHT22;18899;50.748;7.102;2022-12-31T16:08:19;17.20;99.90
32446;DHT22;18899;50.748;7.102;2022-12-31T16:10:46;17.20;99.90
32446;DHT22;18899;50.748;7.102;2022-12-31T16:13:23;17.10;99.90
32446;DHT22;18899;50.748;7.102;2022-12-31T16:15:52;17.00;99.90
32446;DHT22;18899;50.748;7.102;2022-12-31T16:18:20;17.10;99.90
32446;DHT22;18899;50.748;7.102;2022-12-31T16:20:46;17.00;99.90
32446;DHT22;18899;50.748;7.102;2022-12-31T16:23:25;17.00;99.90
32446;DHT22;18899;50.748;7.102;2022-12-31T16:25:55;17.00;99.90
32446;DHT22;18899;50.748;7.102;2022-12-31T16:28:30;16.90;99.90
32446;DHT22;18899;50.748;7.102;2022-12-31T16:31:00;16.90;99.90
32446;DHT22;18899;50.748;7.102;2022-12-31T16:33:26;16.90;99.90
32446;DHT22;18899;50.748;7.102;2022-12-31T16:35:54;16.90;99.90
32446;DHT22;18899;50.748;7.102;2022-12-31T16:38:21;16.90;99.90
32446;DHT22;18899;50.748;7.102;2022-12-31T16:43:41;16.70;99.90
32446;DHT22;18899;50.748;7.102;2022-12-31T16:46:09;16.70;99.90
32446;DHT22;18899;50.748;7.102;2022-12-31T16:48:36;16.70;99.90
32446;DHT22;18899;50.748;7.102;2022-12-31T16:51:02;16.70;99.90
32446;DHT22;18899;50.748;7.102;2022-12-31T16:53:28;16.60;99.90
32446;DHT22;18899;50.748;7.102;2022-12-31T16:56:02;16.70;99.90
32446;DHT22;18899;50.748;7.102;2022-12-31T16:58:34;16.70;99.90
32446;DHT22;18899;50.748;7.102;2022-12-31T17:01:23;16.70;99.90
32446;DHT22;18899;50.748;7.102;2022-12-31T17:03:53;16.70;99.90
32446;DHT22;18899;50.748;7.102;2022-12-31T17:06:20;16.70;99.90
32446;DHT22;18899;50.748;7.102;2022-12-31T17:09:00;16.70;99.90
32446;DHT22;18899;50.748;7.102;2022-12-31T17:11:46;16.70;99.90
32446;DHT22;18899;50.748;7.102;2022-12-31T17:14:23;16.60;99.90
32446;DHT22;18899;50.748;7.102;2022-12-31T17:19:42;16.60;99.90
32446;DHT22;18899;50.748;7.102;2022-12-31T17:22:24;16.60;99.90
32446;DHT22;18899;50.748;7.102;2022-12-31T17:24:50;16.50;99.90
32446;DHT22;18899;50.748;7.102;2022-12-31T17:27:17;16.60;99.90
32446;DHT22;18899;50.748;7.102;2022-12-31T17:29:43;16.60;99.90
32446;DHT22;18899;50.748;7.102;2022-12-31T17:32:45;16.70;99.90
32446;DHT22;18899;50.748;7.102;2022-12-31T17:35:33;16.70;99.90
32446;DHT22;18899;50.748;7.102;2022-12-31T17:40:43;16.60;99.90
32446;DHT22;18899;50.748;7.102;2022-12-31T17:43:11;16.70;99.90
32446;DHT22;18899;50.748;7.102;2022-12-31T17:45:37;16.70;99.90
32446;DHT22;18899;50.748;7.102;2022-12-31T17:48:03;16.70;99.90
32446;DHT22;18899;50.748;7.102;2022-12-31T17:50:29;16.60;99.90
32446;DHT22;18899;50.748;7.102;2022-12-31T17:53:15;16.60;99.90
32446;DHT22;18899;50.748;7.102;2022-12-31T17:55:43;16.50;99.90
32446;DHT22;18899;50.748;7.102;2022-12-31T17:58:22;16.50;99.90
32446;DHT22;18899;50.748;7.102;2022-12-31T18:00:51;16.50;99.90
32446;DHT22;18899;50.748;7.102;2022-12-31T18:03:17;16.40;99.90
32446;DHT22;18899;50.748;7.102;2022-12-31T18:05:42;16.30;99.90
32446;DHT22;18899;50.748;7.102;2022-12-31T18:08:08;16.40;99.90
32446;DHT22;18899;50.748;7.102;2022-12-31T18:10:36;16.40;99.90
32446;DHT22;18899;50.748;7.102;2022-12-31T18:13:03;16.40;99.90
32446;DHT22;18899;50.748;7.102;2022-12-31T18:15:30;16.40;99.90
32446;DHT22;18899;50.748;7.102;2022-12-31T18:17:55;16.40;99.90
32446;DHT22;18899;50.748;7.102;2022-12-31T18:20:22;16.40;99.90
32446;DHT22;18899;50.748;7.102;2022-12-31T18:22:48;16.40;99.90
32446;DHT22;18899;50.748;7.102;2022-12-31T18:25:21;16.40;99.90
32446;DHT22;18899;50.748;7.102;2022-12-31T18:27:48;16.30;99.90
32446;DHT22;18899;50.748;7.102;2022-12-31T18:30:14;16.20;99.90
32446;DHT22;18899;50.748;7.102;2022-12-31T18:32:44;16.20;99.90
32446;DHT22;18899;50.748;7.102;2022-12-31T18:35:17;16.20;99.90
32446;DHT22;18899;50.748;7.102;2022-12-31T18:37:45;16.30;99.90
32446;DHT22;18899;50.748;7.102;2022-12-31T18:40:12;16.30;99.90
32446;DHT22;18899;50.748;7.102;2022-12-31T18:42:38;16.30;99.90
32446;DHT22;18899;50.748;7.102;2022-12-31T18:45:10;16.30;99.90
32446;DHT22;18899;50.748;7.102;2022-12-31T18:47:37;16.30;99.90
32446;DHT22;18899;50.748;7.102;2022-12-31T18:50:03;16.30;99.90
32446;DHT22;18899;50.748;7.102;2022-12-31T18:52:29;16.30;99.90
32446;DHT22;18899;50.748;7.102;2022-12-31T18:54:54;16.30;99.90
32446;DHT22;18899;50.748;7.102;2022-12-31T18:57:20;16.20;99.90
32446;DHT22;18899;50.748;7.102;2022-12-31T18:59:45;16.20;99.90
32446;DHT22;18899;50.748;7.102;2022-12-31T19:02:14;16.20;99.90
32446;DHT22;18899;50.748;7.102;2022-12-31T19:04:40;16.20;99.90
32446;DHT22;18899;50.748;7.102;2022-12-31T19:07:06;16.20;99.90
32446;DHT22;18899;50.748;7.102;2022-12-31T19:09:31;16.20;99.90
32446;DHT22;18899;50.748;7.102;2022-12-31T19:11:57;16.20;99.90
32446;DHT22;18899;50.748;7.102;2022-12-31T19:14:23;16.20;99.90
32446;DHT22;18899;50.748;7.102;2022-12-31T19:16:51;16.30;99.90
32446;DHT22;18899;50.748;7.102;2022-12-31T19:19:17;16.20;99.90
32446;DHT22;18899;50.748;7.102;2022-12-31T19:21:43;16.30;99.90
32446;DHT22;18899;50.748;7.102;2022-12-31T19:24:22;16.30;99.90
32446;DHT22;18899;50.748;7.102;2022-12-31T19:26:48;16.20;99.90
32446;DHT22;18899;50.748;7.102;2022-12-31T19:29:25;16.20;99.90
32446;DHT22;18899;50.748;7.102;2022-12-31T19:31:51;16.30;99.90
32446;DHT22;18899;50.748;7.102;2022-12-31T19:34:17;16.30;99.90
32446;DHT22;18899;50.748;7.102;2022-12-31T19:36:43;16.30;99.90
32446;DHT22;18899;50.748;7.102;2022-12-31T19:39:16;16.30;99.90
32446;DHT22;18899;50.748;7.102;2022-12-31T19:41:43;16.30;99.90